sensor_id;sensor_type;location;lat;lon;timestamp;P1;durP1;ratioP1;P2;durP2;ratioP2
78610;SDS011;67932;50.474;4.436;2023-08-31T00:01:03;4.90;;;2.97;;
78610;SDS011;67932;50.474;4.436;2023-08-31T00:03:30;4.40;;;3.00;;
78610;SDS011;67932;50.474;4.436;2023-08-31T00:05:57;3.72;;;3.00;;
78610;SDS011;67932;50.474;4.436;2023-08-31T00:08:27;4.93;;;3.35;;
78610;SDS011;67932;50.474;4.436;2023-08-31T00:10:57;5.88;;;3.28;;
78610;SDS011;67932;50.474;4.436;2023-08-31T00:13:25;5.97;;;3.72;;
78610;SDS011;67932;50.474;4.436;2023-08-31T00:15:56;5.35;;;3.47;;
78610;SDS011;67932;50.474;4.436;2023-08-31T00:18:23;5.07;;;3.03;;
78610;SDS011;67932;50.474;4.436;2023-08-31T00:20:50;6.20;;;3.65;;
78610;SDS011;67932;50.474;4.436;2023-08-31T00:23:18;5.78;;;3.22;;
78610;SDS011;67932;50.474;4.436;2023-08-31T00:25:45;8.80;;;3.60;;
78610;SDS011;67932;50.474;4.436;2023-08-31T00:28:17;8.25;;;3.25;;
78610;SDS011;67932;50.474;4.436;2023-08-31T00:30:44;6.30;;;3.38;;
78610;SDS011;67932;50.474;4.436;2023-08-31T00:33:13;6.30;;;2.88;;
78610;SDS011;67932;50.474;4.436;2023-08-31T00:35:40;6.75;;;3.22;;
78610;SDS011;67932;50.474;4.436;2023-08-31T00:38:09;7.50;;;3.15;;
78610;SDS011;67932;50.474;4.436;2023-08-31T00:40:38;6.28;;;3.17;;
78610;SDS011;67932;50.474;4.436;2023-08-31T00:43:07;4.43;;;2.65;;
78610;SDS011;67932;50.474;4.436;2023-08-31T00:45:35;5.63;;;2.70;;
78610;SDS011;67932;50.474;4.436;2023-08-31T00:48:03;5.18;;;2.75;;
78610;SDS011;67932;50.474;4.436;2023-08-31T00:50:30;4.68;;;2.63;;
78610;SDS011;67932;50.474;4.436;2023-08-31T00:52:58;4.05;;;2.63;;
78610;SDS011;67932;50.474;4.436;2023-08-31T00:55:24;4.63;;;2.70;;
78610;SDS011;67932;50.474;4.436;2023-08-31T00:57:51;6.72;;;2.72;;
78610;SDS011;67932;50.474;4.436;2023-08-31T01:00:22;6.55;;;2.60;;
78610;SDS011;67932;50.474;4.436;2023-08-31T01:03:01;6.00;;;2.47;;
78610;SDS011;67932;50.474;4.436;2023-08-31T01:08:31;3.50;;;2.10;;
78610;SDS011;67932;50.474;4.436;2023-08-31T01:11:43;5.88;;;2.10;;
78610;SDS011;67932;50.474;4.436;2023-08-31T01:14:18;4.18;;;1.92;;
78610;SDS011;67932;50.474;4.436;2023-08-31T01:16:49;5.00;;;2.30;;
78610;SDS011;67932;50.474;4.436;2023-08-31T01:19:21;5.35;;;2.17;;
78610;SDS011;67932;50.474;4.436;2023-08-31T01:21:53;4.13;;;2.60;;
78610;SDS011;67932;50.474;4.436;2023-08-31T01:24:25;5.28;;;2.05;;
78610;SDS011;67932;50.474;4.436;2023-08-31T01:26:52;5.65;;;1.77;;
78610;SDS011;67932;50.474;4.436;2023-08-31T01:29:19;3.63;;;2.17;;
78610;SDS011;67932;50.474;4.436;2023-08-31T01:31:47;4.93;;;1.83;;
78610;SDS011;67932;50.474;4.436;2023-08-31T01:34:14;4.03;;;1.90;;
78610;SDS011;67932;50.474;4.436;2023-08-31T01:36:43;5.28;;;2.00;;
78610;SDS011;67932;50.474;4.436;2023-08-31T01:39:20;3.20;;;1.90;;
78610;SDS011;67932;50.474;4.436;2023-08-31T01:41:55;3.63;;;2.10;;
78610;SDS011;67932;50.474;4.436;2023-08-31T01:44:25;7.30;;;2.25;;
78610;SDS011;67932;50.474;4.436;2023-08-31T01:46:53;5.80;;;2.13;;
78610;SDS011;67932;50.474;4.436;2023-08-31T01:49:25;5.32;;;1.95;;
78610;SDS011;67932;50.474;4.436;2023-08-31T01:52:11;4.50;;;1.95;;
78610;SDS011;67932;50.474;4.436;2023-08-31T01:54:39;4.32;;;1.67;;
78610;SDS011;67932;50.474;4.436;2023-08-31T01:57:06;5.72;;;2.03;;
78610;SDS011;67932;50.474;4.436;2023-08-31T01:59:35;3.95;;;1.80;;
78610;SDS011;67932;50.474;4.436;2023-08-31T02:02:01;3.47;;;1.73;;
78610;SDS011;67932;50.474;4.436;2023-08-31T02:04:29;4.80;;;2.25;;
78610;SDS011;67932;50.474;4.436;2023-08-31T02:06:55;7.30;;;2.22;;
78610;SDS011;67932;50.474;4.436;2023-08-31T02:09:22;3.47;;;1.80;;
78610;SDS011;67932;50.474;4.436;2023-08-31T02:11:48;3.28;;;1.77;;
78610;SDS011;67932;50.474;4.436;2023-08-31T02:14:15;4.65;;;2.25;;
78610;SDS011;67932;50.474;4.436;2023-08-31T02:16:42;3.55;;;1.80;;
78610;SDS011;67932;50.474;4.436;2023-08-31T02:19:09;3.83;;;1.90;;
78610;SDS011;67932;50.474;4.436;2023-08-31T02:21:37;4.40;;;2.65;;
78610;SDS011;67932;50.474;4.436;2023-08-31T02:24:03;3.55;;;1.92;;
78610;SDS011;67932;50.474;4.436;2023-08-31T02:26:30;5.00;;;1.70;;
78610;SDS011;67932;50.474;4.436;2023-08-31T02:28:58;5.97;;;2.50;;
78610;SDS011;67932;50.474;4.436;2023-08-31T02:31:27;4.22;;;2.08;;
78610;SDS011;67932;50.474;4.436;2023-08-31T02:33:54;4.75;;;2.00;;
78610;SDS011;67932;50.474;4.436;2023-08-31T02:36:21;5.68;;;2.17;;
78610;SDS011;67932;50.474;4.436;2023-08-31T02:38:48;5.55;;;1.98;;
78610;SDS011;67932;50.474;4.436;2023-08-31T02:41:15;5.05;;;1.80;;
78610;SDS011;67932;50.474;4.436;2023-08-31T02:43:42;4.28;;;1.98;;
78610;SDS011;67932;50.474;4.436;2023-08-31T02:46:08;3.67;;;1.80;;
78610;SDS011;67932;50.474;4.436;2023-08-31T02:48:35;5.43;;;2.30;;
78610;SDS011;67932;50.474;4.436;2023-08-31T02:51:03;6.75;;;2.17;;
78610;SDS011;67932;50.474;4.436;2023-08-31T02:53:30;4.15;;;1.98;;
78610;SDS011;67932;50.474;4.436;2023-08-31T02:55:56;6.20;;;2.13;;
78610;SDS011;67932;50.474;4.436;2023-08-31T02:58:23;5.68;;;2.13;;
78610;SDS011;67932;50.474;4.436;2023-08-31T03:00:49;4.10;;;2.40;;
78610;SDS011;67932;50.474;4.436;2023-08-31T03:03:18;3.90;;;1.70;;
78610;SDS011;67932;50.474;4.436;2023-08-31T03:05:44;3.22;;;1.60;;
78610;SDS011;67932;50.474;4.436;2023-08-31T03:08:11;6.22;;;1.63;;
78610;SDS011;67932;50.474;4.436;2023-08-31T03:10:37;4.50;;;2.25;;
78610;SDS011;67932;50.474;4.436;2023-08-31T03:13:04;5.43;;;1.65;;
78610;SDS011;67932;50.474;4.436;2023-08-31T03:15:33;3.00;;;1.95;;
78610;SDS011;67932;50.474;4.436;2023-08-31T03:18:00;2.55;;;1.73;;
78610;SDS011;67932;50.474;4.436;2023-08-31T03:20:27;6.30;;;1.88;;
78610;SDS011;67932;50.474;4.436;2023-08-31T03:22:53;3.65;;;1.65;;
78610;SDS011;67932;50.474;4.436;2023-08-31T03:25:20;3.80;;;1.88;;
78610;SDS011;67932;50.474;4.436;2023-08-31T03:27:47;6.25;;;2.20;;
78610;SDS011;67932;50.474;4.436;2023-08-31T03:30:13;5.30;;;2.20;;
78610;SDS011;67932;50.474;4.436;2023-08-31T03:32:39;7.05;;;2.17;;
78610;SDS011;67932;50.474;4.436;2023-08-31T03:35:07;7.82;;;2.20;;
78610;SDS011;67932;50.474;4.436;2023-08-31T03:37:33;6.13;;;2.10;;
78610;SDS011;67932;50.474;4.436;2023-08-31T03:40:00;3.05;;;2.08;;
78610;SDS011;67932;50.474;4.436;2023-08-31T03:42:26;6.10;;;1.70;;
78610;SDS011;67932;50.474;4.436;2023-08-31T03:44:52;3.63;;;2.17;;
78610;SDS011;67932;50.474;4.436;2023-08-31T03:47:18;3.25;;;1.65;;
78610;SDS011;67932;50.474;4.436;2023-08-31T03:49:45;4.45;;;2.17;;
78610;SDS011;67932;50.474;4.436;2023-08-31T03:52:11;6.45;;;2.35;;
78610;SDS011;67932;50.474;4.436;2023-08-31T03:54:37;9.40;;;3.17;;
78610;SDS011;67932;50.474;4.436;2023-08-31T03:57:04;6.45;;;3.38;;
78610;SDS011;67932;50.474;4.436;2023-08-31T03:59:30;11.70;;;4.65;;
78610;SDS011;67932;50.474;4.436;2023-08-31T04:01:56;3.72;;;2.08;;
78610;SDS011;67932;50.474;4.436;2023-08-31T04:04:22;4.53;;;2.13;;
78610;SDS011;67932;50.474;4.436;2023-08-31T04:06:51;4.88;;;2.30;;
78610;SDS011;67932;50.474;4.436;2023-08-31T04:09:17;4.80;;;2.40;;
78610;SDS011;67932;50.474;4.436;2023-08-31T04:11:44;6.22;;;2.38;;
78610;SDS011;67932;50.474;4.436;2023-08-31T04:14:10;9.65;;;2.58;;
78610;SDS011;67932;50.474;4.436;2023-08-31T04:16:36;5.60;;;2.47;;
78610;SDS011;67932;50.474;4.436;2023-08-31T04:19:03;6.82;;;2.90;;
78610;SDS011;67932;50.474;4.436;2023-08-31T04:21:29;5.60;;;2.22;;
78610;SDS011;67932;50.474;4.436;2023-08-31T04:23:55;6.28;;;2.35;;
78610;SDS011;67932;50.474;4.436;2023-08-31T04:26:24;5.78;;;2.45;;
78610;SDS011;67932;50.474;4.436;2023-08-31T04:28:51;4.35;;;2.17;;
78610;SDS011;67932;50.474;4.436;2023-08-31T04:31:17;5.63;;;2.22;;
78610;SDS011;67932;50.474;4.436;2023-08-31T04:33:44;7.57;;;2.33;;
78610;SDS011;67932;50.474;4.436;2023-08-31T04:36:10;7.63;;;2.65;;
78610;SDS011;67932;50.474;4.436;2023-08-31T04:38:37;8.43;;;2.38;;
78610;SDS011;67932;50.474;4.436;2023-08-31T04:41:03;7.38;;;2.58;;
78610;SDS011;67932;50.474;4.436;2023-08-31T04:43:30;6.38;;;2.67;;
78610;SDS011;67932;50.474;4.436;2023-08-31T04:45:56;9.55;;;2.75;;
78610;SDS011;67932;50.474;4.436;2023-08-31T04:48:22;4.50;;;2.33;;
78610;SDS011;67932;50.474;4.436;2023-08-31T04:50:49;7.32;;;2.80;;
78610;SDS011;67932;50.474;4.436;2023-08-31T04:53:18;9.32;;;2.60;;
78610;SDS011;67932;50.474;4.436;2023-08-31T04:55:44;7.60;;;2.58;;
78610;SDS011;67932;50.474;4.436;2023-08-31T04:58:10;5.65;;;2.58;;
78610;SDS011;67932;50.474;4.436;2023-08-31T05:00:37;8.25;;;2.60;;
78610;SDS011;67932;50.474;4.436;2023-08-31T05:03:04;6.90;;;2.45;;
78610;SDS011;67932;50.474;4.436;2023-08-31T05:05:31;5.78;;;2.50;;
78610;SDS011;67932;50.474;4.436;2023-08-31T05:07:57;7.85;;;2.70;;
78610;SDS011;67932;50.474;4.436;2023-08-31T05:10:24;10.00;;;3.47;;
78610;SDS011;67932;50.474;4.436;2023-08-31T05:12:50;6.45;;;2.67;;
78610;SDS011;67932;50.474;4.436;2023-08-31T05:15:17;6.88;;;3.17;;
78610;SDS011;67932;50.474;4.436;2023-08-31T05:17:43;6.93;;;2.90;;
78610;SDS011;67932;50.474;4.436;2023-08-31T05:20:09;6.60;;;2.85;;
78610;SDS011;67932;50.474;4.436;2023-08-31T05:22:36;4.65;;;2.40;;
78610;SDS011;67932;50.474;4.436;2023-08-31T05:25:03;6.07;;;2.60;;
78610;SDS011;67932;50.474;4.436;2023-08-31T05:27:29;15.20;;;2.95;;
78610;SDS011;67932;50.474;4.436;2023-08-31T05:29:56;7.03;;;2.70;;
78610;SDS011;67932;50.474;4.436;2023-08-31T05:32:22;6.90;;;2.60;;
78610;SDS011;67932;50.474;4.436;2023-08-31T05:34:50;6.88;;;2.40;;
78610;SDS011;67932;50.474;4.436;2023-08-31T05:37:16;7.32;;;2.20;;
78610;SDS011;67932;50.474;4.436;2023-08-31T05:39:47;10.73;;;2.42;;
78610;SDS011;67932;50.474;4.436;2023-08-31T05:42:14;6.60;;;2.78;;
78610;SDS011;67932;50.474;4.436;2023-08-31T05:44:42;9.00;;;2.67;;
78610;SDS011;67932;50.474;4.436;2023-08-31T05:47:12;7.57;;;2.78;;
78610;SDS011;67932;50.474;4.436;2023-08-31T05:50:02;8.50;;;2.97;;
78610;SDS011;67932;50.474;4.436;2023-08-31T05:52:28;6.07;;;2.22;;
78610;SDS011;67932;50.474;4.436;2023-08-31T05:54:56;10.20;;;2.33;;
78610;SDS011;67932;50.474;4.436;2023-08-31T05:57:22;10.18;;;2.65;;
78610;SDS011;67932;50.474;4.436;2023-08-31T05:59:54;9.43;;;2.58;;
78610;SDS011;67932;50.474;4.436;2023-08-31T06:02:21;6.57;;;2.22;;
78610;SDS011;67932;50.474;4.436;2023-08-31T06:04:47;7.45;;;2.47;;
78610;SDS011;67932;50.474;4.436;2023-08-31T06:07:20;6.80;;;2.28;;
78610;SDS011;67932;50.474;4.436;2023-08-31T06:09:47;7.53;;;3.20;;
78610;SDS011;67932;50.474;4.436;2023-08-31T06:12:16;9.25;;;3.38;;
78610;SDS011;67932;50.474;4.436;2023-08-31T06:14:44;10.27;;;3.08;;
78610;SDS011;67932;50.474;4.436;2023-08-31T06:17:11;7.35;;;2.63;;
78610;SDS011;67932;50.474;4.436;2023-08-31T06:19:40;8.07;;;3.08;;
78610;SDS011;67932;50.474;4.436;2023-08-31T06:22:08;5.97;;;2.17;;
78610;SDS011;67932;50.474;4.436;2023-08-31T06:24:34;7.93;;;2.22;;
78610;SDS011;67932;50.474;4.436;2023-08-31T06:27:01;6.72;;;2.78;;
78610;SDS011;67932;50.474;4.436;2023-08-31T06:29:29;7.88;;;2.72;;
78610;SDS011;67932;50.474;4.436;2023-08-31T06:31:55;6.22;;;2.30;;
78610;SDS011;67932;50.474;4.436;2023-08-31T06:34:22;5.35;;;2.33;;
78610;SDS011;67932;50.474;4.436;2023-08-31T06:36:48;8.20;;;2.42;;
78610;SDS011;67932;50.474;4.436;2023-08-31T06:39:15;9.95;;;2.88;;
78610;SDS011;67932;50.474;4.436;2023-08-31T06:41:41;7.32;;;2.67;;
78610;SDS011;67932;50.474;4.436;2023-08-31T06:44:07;5.22;;;2.15;;
78610;SDS011;67932;50.474;4.436;2023-08-31T06:46:34;7.90;;;2.50;;
78610;SDS011;67932;50.474;4.436;2023-08-31T06:49:03;5.13;;;2.53;;
78610;SDS011;67932;50.474;4.436;2023-08-31T06:51:30;4.55;;;2.05;;
78610;SDS011;67932;50.474;4.436;2023-08-31T06:53:57;4.15;;;2.47;;
78610;SDS011;67932;50.474;4.436;2023-08-31T06:56:33;4.53;;;2.50;;
78610;SDS011;67932;50.474;4.436;2023-08-31T06:58:59;8.05;;;2.60;;
78610;SDS011;67932;50.474;4.436;2023-08-31T07:01:26;7.13;;;2.53;;
78610;SDS011;67932;50.474;4.436;2023-08-31T07:03:53;6.78;;;2.47;;
78610;SDS011;67932;50.474;4.436;2023-08-31T07:06:19;5.70;;;2.30;;
78610;SDS011;67932;50.474;4.436;2023-08-31T07:08:45;5.45;;;2.30;;
78610;SDS011;67932;50.474;4.436;2023-08-31T07:11:13;5.13;;;2.42;;
78610;SDS011;67932;50.474;4.436;2023-08-31T07:13:40;8.93;;;2.60;;
78610;SDS011;67932;50.474;4.436;2023-08-31T07:16:06;6.22;;;2.38;;
78610;SDS011;67932;50.474;4.436;2023-08-31T07:18:35;6.95;;;2.30;;
78610;SDS011;67932;50.474;4.436;2023-08-31T07:21:02;8.82;;;2.95;;
78610;SDS011;67932;50.474;4.436;2023-08-31T07:23:32;6.47;;;1.90;;
78610;SDS011;67932;50.474;4.436;2023-08-31T07:25:58;6.63;;;2.90;;
78610;SDS011;67932;50.474;4.436;2023-08-31T07:28:25;7.80;;;2.50;;
78610;SDS011;67932;50.474;4.436;2023-08-31T07:31:13;7.18;;;2.38;;
78610;SDS011;67932;50.474;4.436;2023-08-31T07:33:38;6.20;;;2.28;;
78610;SDS011;67932;50.474;4.436;2023-08-31T07:36:05;8.90;;;2.65;;
78610;SDS011;67932;50.474;4.436;2023-08-31T07:38:31;4.18;;;2.17;;
78610;SDS011;67932;50.474;4.436;2023-08-31T07:40:58;4.38;;;1.85;;
78610;SDS011;67932;50.474;4.436;2023-08-31T07:43:25;6.20;;;2.38;;
78610;SDS011;67932;50.474;4.436;2023-08-31T07:45:53;5.85;;;1.67;;
78610;SDS011;67932;50.474;4.436;2023-08-31T07:48:19;7.55;;;2.63;;
78610;SDS011;67932;50.474;4.436;2023-08-31T07:50:46;8.32;;;2.53;;
78610;SDS011;67932;50.474;4.436;2023-08-31T07:53:13;7.82;;;2.53;;
78610;SDS011;67932;50.474;4.436;2023-08-31T07:55:40;7.85;;;2.40;;
78610;SDS011;67932;50.474;4.436;2023-08-31T07:58:06;7.05;;;2.42;;
78610;SDS011;67932;50.474;4.436;2023-08-31T08:00:32;8.75;;;2.63;;
78610;SDS011;67932;50.474;4.436;2023-08-31T08:02:59;5.43;;;2.35;;
78610;SDS011;67932;50.474;4.436;2023-08-31T08:05:25;5.75;;;2.38;;
78610;SDS011;67932;50.474;4.436;2023-08-31T08:07:52;5.65;;;2.20;;
78610;SDS011;67932;50.474;4.436;2023-08-31T08:10:18;7.53;;;2.08;;
78610;SDS011;67932;50.474;4.436;2023-08-31T08:12:45;6.07;;;2.53;;
78610;SDS011;67932;50.474;4.436;2023-08-31T08:15:12;7.28;;;2.15;;
78610;SDS011;67932;50.474;4.436;2023-08-31T08:17:38;5.15;;;2.30;;
78610;SDS011;67932;50.474;4.436;2023-08-31T08:20:06;4.47;;;2.10;;
78610;SDS011;67932;50.474;4.436;2023-08-31T08:22:33;4.30;;;2.10;;
78610;SDS011;67932;50.474;4.436;2023-08-31T08:25:01;6.55;;;2.30;;
78610;SDS011;67932;50.474;4.436;2023-08-31T08:27:27;5.47;;;2.00;;
78610;SDS011;67932;50.474;4.436;2023-08-31T08:29:54;4.97;;;2.08;;
78610;SDS011;67932;50.474;4.436;2023-08-31T08:32:20;4.88;;;1.83;;
78610;SDS011;67932;50.474;4.436;2023-08-31T08:34:47;5.15;;;2.38;;
78610;SDS011;67932;50.474;4.436;2023-08-31T08:37:15;5.30;;;1.80;;
78610;SDS011;67932;50.474;4.436;2023-08-31T08:39:41;6.40;;;2.10;;
78610;SDS011;67932;50.474;4.436;2023-08-31T08:42:08;10.85;;;2.28;;
78610;SDS011;67932;50.474;4.436;2023-08-31T08:44:43;9.25;;;3.13;;
78610;SDS011;67932;50.474;4.436;2023-08-31T08:47:11;9.25;;;2.10;;
78610;SDS011;67932;50.474;4.436;2023-08-31T08:49:38;4.75;;;1.63;;
78610;SDS011;67932;50.474;4.436;2023-08-31T08:52:05;5.65;;;1.70;;
78610;SDS011;67932;50.474;4.436;2023-08-31T08:54:31;4.45;;;1.55;;
78610;SDS011;67932;50.474;4.436;2023-08-31T08:56:59;7.13;;;2.05;;
78610;SDS011;67932;50.474;4.436;2023-08-31T08:59:26;7.65;;;1.90;;
78610;SDS011;67932;50.474;4.436;2023-08-31T09:01:53;9.98;;;2.67;;
78610;SDS011;67932;50.474;4.436;2023-08-31T09:04:20;5.93;;;2.17;;
78610;SDS011;67932;50.474;4.436;2023-08-31T09:06:50;3.97;;;1.92;;
78610;SDS011;67932;50.474;4.436;2023-08-31T09:09:16;6.00;;;2.10;;
78610;SDS011;67932;50.474;4.436;2023-08-31T09:11:43;5.68;;;2.25;;
78610;SDS011;67932;50.474;4.436;2023-08-31T09:14:14;10.80;;;2.95;;
78610;SDS011;67932;50.474;4.436;2023-08-31T09:16:43;4.75;;;2.40;;
78610;SDS011;67932;50.474;4.436;2023-08-31T09:19:21;8.75;;;2.20;;
78610;SDS011;67932;50.474;4.436;2023-08-31T09:21:49;5.38;;;1.80;;
78610;SDS011;67932;50.474;4.436;2023-08-31T09:24:16;6.78;;;2.33;;
78610;SDS011;67932;50.474;4.436;2023-08-31T09:26:44;7.07;;;2.80;;
78610;SDS011;67932;50.474;4.436;2023-08-31T09:29:14;10.25;;;2.47;;
78610;SDS011;67932;50.474;4.436;2023-08-31T09:31:42;3.67;;;2.10;;
78610;SDS011;67932;50.474;4.436;2023-08-31T09:34:10;7.25;;;2.90;;
78610;SDS011;67932;50.474;4.436;2023-08-31T09:36:37;7.60;;;2.30;;
78610;SDS011;67932;50.474;4.436;2023-08-31T09:39:05;7.82;;;2.38;;
78610;SDS011;67932;50.474;4.436;2023-08-31T09:41:32;9.35;;;2.42;;
78610;SDS011;67932;50.474;4.436;2023-08-31T09:44:17;5.75;;;2.00;;
78610;SDS011;67932;50.474;4.436;2023-08-31T09:46:45;4.78;;;2.03;;
78610;SDS011;67932;50.474;4.436;2023-08-31T09:49:15;3.28;;;1.63;;
78610;SDS011;67932;50.474;4.436;2023-08-31T09:51:45;5.43;;;1.73;;
78610;SDS011;67932;50.474;4.436;2023-08-31T09:54:20;5.45;;;1.90;;
78610;SDS011;67932;50.474;4.436;2023-08-31T09:56:49;3.53;;;1.75;;
78610;SDS011;67932;50.474;4.436;2023-08-31T09:59:29;4.65;;;1.60;;
78610;SDS011;67932;50.474;4.436;2023-08-31T10:02:18;4.32;;;1.85;;
78610;SDS011;67932;50.474;4.436;2023-08-31T10:04:45;6.90;;;1.35;;
78610;SDS011;67932;50.474;4.436;2023-08-31T10:07:12;6.35;;;2.60;;
78610;SDS011;67932;50.474;4.436;2023-08-31T10:09:39;4.30;;;1.60;;
78610;SDS011;67932;50.474;4.436;2023-08-31T10:12:06;4.85;;;1.33;;
78610;SDS011;67932;50.474;4.436;2023-08-31T10:14:33;3.65;;;1.52;;
78610;SDS011;67932;50.474;4.436;2023-08-31T10:17:00;3.70;;;1.52;;
78610;SDS011;67932;50.474;4.436;2023-08-31T10:19:27;3.13;;;1.30;;
78610;SDS011;67932;50.474;4.436;2023-08-31T10:21:53;3.50;;;1.02;;
78610;SDS011;67932;50.474;4.436;2023-08-31T10:27:18;7.65;;;1.90;;
78610;SDS011;67932;50.474;4.436;2023-08-31T10:29:45;4.00;;;1.35;;
78610;SDS011;67932;50.474;4.436;2023-08-31T10:32:16;3.33;;;1.27;;
78610;SDS011;67932;50.474;4.436;2023-08-31T10:35:20;2.72;;;1.63;;
78610;SDS011;67932;50.474;4.436;2023-08-31T10:37:40;6.32;;;1.33;;
78610;SDS011;67932;50.474;4.436;2023-08-31T10:40:09;4.85;;;1.27;;
78610;SDS011;67932;50.474;4.436;2023-08-31T10:42:46;3.75;;;1.08;;
78610;SDS011;67932;50.474;4.436;2023-08-31T10:45:42;5.07;;;1.27;;
78610;SDS011;67932;50.474;4.436;2023-08-31T10:48:14;2.78;;;1.10;;
78610;SDS011;67932;50.474;4.436;2023-08-31T10:50:46;3.28;;;1.23;;
78610;SDS011;67932;50.474;4.436;2023-08-31T10:53:13;3.10;;;0.95;;
78610;SDS011;67932;50.474;4.436;2023-08-31T10:55:52;3.75;;;1.40;;
78610;SDS011;67932;50.474;4.436;2023-08-31T10:58:18;4.50;;;0.90;;
78610;SDS011;67932;50.474;4.436;2023-08-31T11:00:51;1.70;;;1.17;;
78610;SDS011;67932;50.474;4.436;2023-08-31T11:03:18;3.65;;;1.33;;
78610;SDS011;67932;50.474;4.436;2023-08-31T11:05:51;2.60;;;0.80;;
78610;SDS011;67932;50.474;4.436;2023-08-31T11:08:24;3.28;;;0.90;;
78610;SDS011;67932;50.474;4.436;2023-08-31T11:10:54;5.15;;;0.98;;
78610;SDS011;67932;50.474;4.436;2023-08-31T11:13:20;2.88;;;0.90;;
78610;SDS011;67932;50.474;4.436;2023-08-31T11:15:48;3.47;;;1.00;;
78610;SDS011;67932;50.474;4.436;2023-08-31T11:18:18;3.72;;;0.82;;
78610;SDS011;67932;50.474;4.436;2023-08-31T11:20:46;3.50;;;1.35;;
78610;SDS011;67932;50.474;4.436;2023-08-31T11:23:13;3.15;;;1.20;;
78610;SDS011;67932;50.474;4.436;2023-08-31T11:25:40;3.45;;;1.20;;
78610;SDS011;67932;50.474;4.436;2023-08-31T11:28:07;2.72;;;1.00;;
78610;SDS011;67932;50.474;4.436;2023-08-31T11:30:33;2.55;;;1.30;;
78610;SDS011;67932;50.474;4.436;2023-08-31T11:33:10;2.20;;;1.25;;
78610;SDS011;67932;50.474;4.436;2023-08-31T11:35:39;4.45;;;1.02;;
78610;SDS011;67932;50.474;4.436;2023-08-31T11:38:08;3.80;;;1.00;;
78610;SDS011;67932;50.474;4.436;2023-08-31T11:40:35;6.50;;;1.55;;
78610;SDS011;67932;50.474;4.436;2023-08-31T11:43:06;2.72;;;1.20;;
78610;SDS011;67932;50.474;4.436;2023-08-31T11:45:33;3.13;;;1.17;;
78610;SDS011;67932;50.474;4.436;2023-08-31T11:48:31;2.45;;;1.48;;
78610;SDS011;67932;50.474;4.436;2023-08-31T11:50:58;3.08;;;1.08;;
78610;SDS011;67932;50.474;4.436;2023-08-31T11:53:26;3.08;;;1.20;;
78610;SDS011;67932;50.474;4.436;2023-08-31T11:55:55;5.88;;;2.08;;
78610;SDS011;67932;50.474;4.436;2023-08-31T11:58:26;4.07;;;1.65;;
78610;SDS011;67932;50.474;4.436;2023-08-31T12:01:01;3.15;;;1.60;;
78610;SDS011;67932;50.474;4.436;2023-08-31T12:03:42;4.57;;;1.70;;
78610;SDS011;67932;50.474;4.436;2023-08-31T12:06:09;5.20;;;1.90;;
78610;SDS011;67932;50.474;4.436;2023-08-31T12:08:36;3.92;;;1.70;;
78610;SDS011;67932;50.474;4.436;2023-08-31T12:11:06;3.35;;;1.70;;
78610;SDS011;67932;50.474;4.436;2023-08-31T12:13:32;4.65;;;1.90;;
78610;SDS011;67932;50.474;4.436;2023-08-31T12:16:34;4.82;;;1.63;;
78610;SDS011;67932;50.474;4.436;2023-08-31T12:19:04;3.83;;;1.45;;
78610;SDS011;67932;50.474;4.436;2023-08-31T12:21:32;10.02;;;1.95;;
78610;SDS011;67932;50.474;4.436;2023-08-31T12:23:58;4.13;;;1.55;;
78610;SDS011;67932;50.474;4.436;2023-08-31T12:26:26;6.22;;;1.35;;
78610;SDS011;67932;50.474;4.436;2023-08-31T12:28:56;6.00;;;1.95;;
78610;SDS011;67932;50.474;4.436;2023-08-31T12:31:25;3.78;;;1.63;;
78610;SDS011;67932;50.474;4.436;2023-08-31T12:34:12;4.40;;;1.65;;
78610;SDS011;67932;50.474;4.436;2023-08-31T12:37:04;5.00;;;1.90;;
78610;SDS011;67932;50.474;4.436;2023-08-31T12:39:55;3.78;;;1.40;;
78610;SDS011;67932;50.474;4.436;2023-08-31T12:42:32;4.20;;;1.30;;
78610;SDS011;67932;50.474;4.436;2023-08-31T12:44:58;4.68;;;1.52;;
78610;SDS011;67932;50.474;4.436;2023-08-31T12:47:25;4.55;;;1.85;;
78610;SDS011;67932;50.474;4.436;2023-08-31T12:49:52;4.65;;;1.83;;
78610;SDS011;67932;50.474;4.436;2023-08-31T12:52:18;4.57;;;1.42;;
78610;SDS011;67932;50.474;4.436;2023-08-31T12:54:44;6.07;;;1.70;;
78610;SDS011;67932;50.474;4.436;2023-08-31T12:57:11;2.85;;;1.42;;
78610;SDS011;67932;50.474;4.436;2023-08-31T12:59:37;6.78;;;1.83;;
78610;SDS011;67932;50.474;4.436;2023-08-31T13:02:04;4.40;;;1.55;;
78610;SDS011;67932;50.474;4.436;2023-08-31T13:04:35;4.10;;;1.80;;
78610;SDS011;67932;50.474;4.436;2023-08-31T13:07:03;3.97;;;1.50;;
78610;SDS011;67932;50.474;4.436;2023-08-31T13:09:30;5.13;;;1.73;;
78610;SDS011;67932;50.474;4.436;2023-08-31T13:11:58;4.13;;;1.35;;
78610;SDS011;67932;50.474;4.436;2023-08-31T13:14:24;3.60;;;1.20;;
78610;SDS011;67932;50.474;4.436;2023-08-31T13:16:51;4.82;;;1.50;;
78610;SDS011;67932;50.474;4.436;2023-08-31T13:19:18;5.15;;;1.98;;
78610;SDS011;67932;50.474;4.436;2023-08-31T13:21:44;5.65;;;1.60;;
78610;SDS011;67932;50.474;4.436;2023-08-31T13:24:11;5.85;;;1.48;;
78610;SDS011;67932;50.474;4.436;2023-08-31T13:26:37;7.22;;;1.67;;
78610;SDS011;67932;50.474;4.436;2023-08-31T13:29:04;4.80;;;1.52;;
78610;SDS011;67932;50.474;4.436;2023-08-31T13:31:30;4.82;;;1.42;;
78610;SDS011;67932;50.474;4.436;2023-08-31T13:33:56;5.95;;;1.52;;
78610;SDS011;67932;50.474;4.436;2023-08-31T13:36:23;5.93;;;1.73;;
78610;SDS011;67932;50.474;4.436;2023-08-31T13:38:49;1.73;;;1.25;;
78610;SDS011;67932;50.474;4.436;2023-08-31T13:41:15;4.70;;;1.40;;
78610;SDS011;67932;50.474;4.436;2023-08-31T13:43:42;3.38;;;1.00;;
78610;SDS011;67932;50.474;4.436;2023-08-31T13:46:08;7.60;;;1.95;;
78610;SDS011;67932;50.474;4.436;2023-08-31T13:48:36;2.85;;;1.20;;
78610;SDS011;67932;50.474;4.436;2023-08-31T13:51:02;2.90;;;1.25;;
78610;SDS011;67932;50.474;4.436;2023-08-31T13:53:28;6.03;;;1.38;;
78610;SDS011;67932;50.474;4.436;2023-08-31T13:55:55;4.38;;;1.48;;
78610;SDS011;67932;50.474;4.436;2023-08-31T13:58:22;3.35;;;1.58;;
78610;SDS011;67932;50.474;4.436;2023-08-31T14:00:48;5.63;;;1.80;;
78610;SDS011;67932;50.474;4.436;2023-08-31T14:03:14;4.93;;;1.50;;
78610;SDS011;67932;50.474;4.436;2023-08-31T14:05:42;3.55;;;1.35;;
78610;SDS011;67932;50.474;4.436;2023-08-31T14:08:12;4.78;;;1.35;;
78610;SDS011;67932;50.474;4.436;2023-08-31T14:10:39;4.63;;;1.25;;
78610;SDS011;67932;50.474;4.436;2023-08-31T14:13:06;8.80;;;1.65;;
78610;SDS011;67932;50.474;4.436;2023-08-31T14:15:32;4.65;;;1.55;;
78610;SDS011;67932;50.474;4.436;2023-08-31T14:17:58;6.70;;;1.55;;
78610;SDS011;67932;50.474;4.436;2023-08-31T14:20:25;3.45;;;1.40;;
78610;SDS011;67932;50.474;4.436;2023-08-31T14:22:51;5.95;;;1.33;;
78610;SDS011;67932;50.474;4.436;2023-08-31T14:25:17;5.70;;;1.60;;
78610;SDS011;67932;50.474;4.436;2023-08-31T14:27:44;5.18;;;1.60;;
78610;SDS011;67932;50.474;4.436;2023-08-31T14:30:11;7.57;;;2.13;;
78610;SDS011;67932;50.474;4.436;2023-08-31T14:32:38;7.25;;;1.77;;
78610;SDS011;67932;50.474;4.436;2023-08-31T14:35:04;6.15;;;1.58;;
78610;SDS011;67932;50.474;4.436;2023-08-31T14:37:32;6.72;;;1.95;;
78610;SDS011;67932;50.474;4.436;2023-08-31T14:40:00;5.20;;;1.85;;
78610;SDS011;67932;50.474;4.436;2023-08-31T14:42:26;8.38;;;2.75;;
78610;SDS011;67932;50.474;4.436;2023-08-31T14:44:52;6.68;;;1.85;;
78610;SDS011;67932;50.474;4.436;2023-08-31T14:47:19;5.18;;;2.03;;
78610;SDS011;67932;50.474;4.436;2023-08-31T14:49:45;7.72;;;2.15;;
78610;SDS011;67932;50.474;4.436;2023-08-31T14:52:12;7.82;;;2.95;;
78610;SDS011;67932;50.474;4.436;2023-08-31T14:54:38;9.40;;;6.35;;
78610;SDS011;67932;50.474;4.436;2023-08-31T14:57:04;7.75;;;3.90;;
78610;SDS011;67932;50.474;4.436;2023-08-31T14:59:31;8.05;;;2.40;;
78610;SDS011;67932;50.474;4.436;2023-08-31T15:01:58;8.57;;;2.28;;